Clayville, Rhode Island
Current Conditions -  °F | °C
As of 2:51 PM on Sunday 23 Nov 2014 (Local Time) from KPVD Reporting Station
Broken Clouds Broken Clouds  
Wind Chill: 56°   Ceiling: 25000
Heat Index: 56°   Visibility: 10mi
Dew Point: 35°   Wind: 6mph
Humidity: 45%   Direction: 120°ESE
Pressure: 30.13"   Gusts: NA
Location:  41.78°N, 71.68°W
Report Text: KPVD 231951Z 12005KT 10SM FEW060 FEW100 SCT160 BKN250 BKN300 13/02 A3013 RMK AO2 SLP202 T01330017
Loading
Personal Weather Stations






























Interactive Weather Map New forecast layout! Learn more

10-Day Weather Forecast

Advertisements
Track Severe Weather on mobile